createdAt,value
2018-05-16T00:00:39.894Z,15.33
2018-05-16T00:03:07.440Z,18.60
2018-05-16T00:05:34.978Z,16.50
2018-05-16T00:08:02.519Z,14.40
2018-05-16T00:10:30.184Z,16.07
2018-05-16T00:12:57.795Z,14.90
2018-05-16T00:15:25.371Z,17.03
2018-05-16T00:17:53.588Z,17.50
2018-05-16T00:20:21.074Z,18.03
2018-05-16T00:22:48.526Z,17.70
2018-05-16T00:25:16.697Z,15.03
2018-05-16T00:27:44.253Z,15.03
2018-05-16T00:30:11.850Z,17.27
2018-05-16T00:32:43.436Z,18.97
2018-05-16T00:35:10.880Z,15.53
2018-05-16T00:37:38.420Z,20.37
2018-05-16T00:40:05.900Z,17.13
2018-05-16T00:42:33.377Z,16.57
2018-05-16T00:45:00.861Z,18.67
2018-05-16T00:47:28.332Z,17.00
2018-05-16T00:49:55.788Z,15.93
2018-05-16T00:52:23.299Z,15.10
2018-05-16T00:54:50.897Z,16.10
2018-05-16T00:57:19.276Z,15.30
2018-05-16T00:59:46.715Z,16.30
2018-05-16T01:02:14.187Z,18.40
2018-05-16T01:04:42.284Z,15.80
2018-05-16T01:07:09.758Z,17.93
2018-05-16T01:09:37.234Z,17.13
2018-05-16T01:12:04.704Z,18.10
2018-05-16T01:14:32.756Z,20.50
2018-05-16T01:17:00.229Z,16.67
2018-05-16T01:19:27.772Z,16.70
2018-05-16T01:21:55.217Z,20.30
2018-05-16T01:24:22.685Z,21.10
2018-05-16T01:26:50.195Z,20.27
2018-05-16T01:29:17.733Z,17.10
2018-05-16T01:31:45.187Z,15.53
2018-05-16T01:34:12.969Z,17.33
2018-05-16T01:36:40.409Z,16.00
2018-05-16T01:39:07.933Z,18.63
2018-05-16T01:41:35.391Z,17.37
2018-05-16T01:44:02.899Z,19.97
2018-05-16T01:46:30.345Z,17.73
2018-05-16T01:49:09.471Z,17.80
2018-05-16T01:51:36.932Z,17.33
2018-05-16T01:54:04.509Z,16.50
2018-05-16T01:56:33.316Z,17.53
2018-05-16T01:59:01.263Z,20.30
2018-05-16T02:01:28.731Z,15.37
2018-05-16T02:03:56.474Z,16.53
2018-05-16T02:06:23.944Z,16.03
2018-05-16T02:08:51.419Z,17.93
2018-05-16T02:11:18.927Z,17.30
2018-05-16T02:13:46.376Z,17.63
2018-05-16T02:16:13.941Z,17.20
2018-05-16T02:18:41.409Z,17.50
2018-05-16T02:21:09.211Z,18.07
2018-05-16T02:23:36.692Z,19.60
2018-05-16T02:26:04.430Z,18.77
2018-05-16T02:28:31.887Z,18.70
2018-05-16T02:30:59.459Z,16.57
2018-05-16T02:33:27.122Z,19.33
2018-05-16T02:35:55.007Z,20.60
2018-05-16T02:38:22.472Z,18.20
2018-05-16T02:40:49.926Z,18.00
2018-05-16T02:43:17.391Z,17.17
2018-05-16T02:45:44.837Z,18.13
2018-05-16T02:48:12.321Z,18.93
2018-05-16T02:50:40.010Z,16.50
2018-05-16T02:53:07.523Z,18.30
2018-05-16T02:55:34.977Z,17.60
2018-05-16T02:58:02.797Z,14.20
2018-05-16T03:00:30.857Z,16.93
2018-05-16T03:02:58.620Z,16.00
2018-05-16T03:05:26.066Z,18.40
2018-05-16T03:07:53.864Z,22.10
2018-05-16T03:10:21.353Z,16.90
2018-05-16T03:12:48.890Z,20.40
2018-05-16T03:15:16.365Z,15.60
2018-05-16T03:17:43.805Z,17.60
2018-05-16T03:20:11.330Z,16.47
2018-05-16T03:22:39.066Z,16.90
2018-05-16T03:25:06.548Z,17.70
2018-05-16T03:27:33.986Z,17.17
2018-05-16T03:30:01.467Z,18.53
2018-05-16T03:32:28.972Z,17.60
2018-05-16T03:34:56.717Z,17.10
2018-05-16T03:37:24.255Z,18.87
2018-05-16T03:39:51.729Z,17.90
2018-05-16T03:42:19.497Z,22.10
2018-05-16T03:44:46.974Z,22.27
2018-05-16T03:47:14.443Z,24.17
2018-05-16T03:49:41.986Z,24.60
2018-05-16T03:52:09.506Z,22.03
2018-05-16T03:54:37.019Z,19.90
2018-05-16T04:00:14.557Z,18.20
2018-05-16T04:02:53.851Z,19.27
2018-05-16T04:05:21.305Z,20.57
2018-05-16T04:07:49.261Z,24.17
2018-05-16T04:10:17.035Z,19.43
2018-05-16T04:12:44.500Z,22.80
2018-05-16T04:15:11.959Z,23.93
2018-05-16T04:17:39.467Z,23.37
2018-05-16T04:20:06.940Z,22.00
2018-05-16T04:22:34.431Z,22.30
2018-05-16T04:25:01.952Z,23.93
2018-05-16T04:27:29.436Z,23.87
2018-05-16T04:29:57.649Z,20.80
2018-05-16T04:32:25.258Z,21.07
2018-05-16T04:34:52.832Z,22.70
2018-05-16T04:37:20.419Z,25.23
2018-05-16T04:39:47.887Z,22.70
2018-05-16T04:42:15.415Z,22.60
2018-05-16T04:44:43.069Z,24.70
2018-05-16T04:47:11.470Z,19.70
2018-05-16T04:49:39.029Z,20.70
2018-05-16T04:52:06.510Z,27.30
2018-05-16T04:54:34.058Z,24.87
2018-05-16T04:57:03.003Z,19.93
2018-05-16T04:59:30.501Z,20.90
2018-05-16T05:01:57.959Z,18.83
2018-05-16T05:04:25.542Z,18.90
2018-05-16T05:06:53.044Z,24.53
2018-05-16T05:09:20.616Z,18.57
2018-05-16T05:11:48.691Z,21.33
2018-05-16T05:14:16.209Z,21.00
2018-05-16T05:16:45.380Z,17.90
2018-05-16T05:19:12.860Z,20.63
2018-05-16T05:21:40.336Z,19.50
2018-05-16T05:24:08.157Z,19.90
2018-05-16T05:26:35.564Z,18.30
2018-05-16T05:29:03.052Z,20.23
2018-05-16T05:31:30.549Z,22.27
2018-05-16T05:33:58.010Z,18.70
2018-05-16T05:36:25.493Z,17.97
2018-05-16T05:38:53.106Z,20.43
2018-05-16T05:41:20.664Z,19.97
2018-05-16T05:43:48.468Z,18.33
2018-05-16T05:46:15.911Z,22.70
2018-05-16T05:48:43.454Z,18.07
2018-05-16T05:51:10.957Z,19.20
2018-05-16T05:53:38.505Z,20.40
2018-05-16T05:56:05.970Z,17.43
2018-05-16T05:58:33.424Z,20.47
2018-05-16T06:01:00.907Z,21.43
2018-05-16T06:03:28.386Z,17.90
2018-05-16T06:05:56.115Z,18.97
2018-05-16T06:08:23.608Z,19.77
2018-05-16T06:10:51.093Z,20.10
2018-05-16T06:13:18.571Z,20.40
2018-05-16T06:15:46.029Z,27.43
2018-05-16T06:18:13.492Z,22.07
2018-05-16T06:20:41.023Z,21.10
2018-05-16T06:23:09.661Z,29.87
2018-05-16T06:25:37.140Z,21.50
2018-05-16T06:28:05.120Z,22.27
2018-05-16T06:30:32.690Z,21.77
2018-05-16T06:33:00.159Z,19.33
2018-05-16T06:35:28.782Z,19.80
2018-05-16T06:37:56.485Z,13.63
2018-05-16T06:40:23.951Z,14.23
2018-05-16T06:42:51.457Z,11.60
2018-05-16T06:45:18.991Z,10.57
2018-05-16T06:47:46.515Z,14.60
2018-05-16T06:50:13.989Z,12.57
2018-05-16T06:52:41.449Z,12.70
2018-05-16T06:55:09.154Z,9.77
2018-05-16T06:57:36.649Z,12.53
2018-05-16T07:00:04.135Z,13.07
2018-05-16T07:02:31.676Z,13.10
2018-05-16T07:04:59.192Z,13.67
2018-05-16T07:07:26.704Z,13.23
2018-05-16T07:09:54.172Z,14.63
2018-05-16T07:12:21.636Z,12.47
2018-05-16T07:14:49.201Z,13.90
2018-05-16T07:17:16.729Z,12.97
2018-05-16T07:19:44.175Z,14.27
2018-05-16T07:22:11.651Z,13.10
2018-05-16T07:24:39.187Z,14.00
2018-05-16T07:27:06.669Z,15.00
2018-05-16T07:29:34.869Z,16.03
2018-05-16T07:32:02.326Z,20.23
2018-05-16T07:34:29.842Z,10.80
2018-05-16T07:36:57.389Z,14.33
2018-05-16T07:39:25.554Z,13.90
2018-05-16T07:41:53.416Z,13.07
2018-05-16T07:44:20.913Z,15.77
2018-05-16T07:46:48.437Z,14.90
2018-05-16T07:49:15.934Z,14.00
2018-05-16T07:51:44.033Z,13.73
2018-05-16T07:54:11.506Z,14.07
2018-05-16T07:56:39.071Z,14.73
2018-05-16T07:59:06.653Z,15.97
2018-05-16T08:01:34.497Z,21.10
2018-05-16T08:04:01.963Z,13.80
2018-05-16T08:06:29.461Z,11.27
2018-05-16T08:08:57.052Z,9.77
2018-05-16T08:11:24.494Z,10.93
2018-05-16T08:13:51.963Z,8.37
2018-05-16T08:16:19.852Z,7.63
2018-05-16T08:18:47.293Z,7.30
2018-05-16T08:21:14.771Z,6.83
2018-05-16T08:23:42.223Z,8.63
2018-05-16T08:26:10.450Z,7.17
2018-05-16T08:28:37.931Z,7.57
2018-05-16T08:31:05.540Z,7.73
2018-05-16T08:33:32.945Z,9.57
2018-05-16T08:36:00.495Z,8.10
2018-05-16T08:38:28.696Z,7.87
2018-05-16T08:40:56.578Z,8.90
2018-05-16T08:43:24.016Z,8.53
2018-05-16T08:45:51.464Z,8.07
2018-05-16T08:48:19.635Z,9.67
2018-05-16T08:50:47.095Z,11.87
2018-05-16T08:53:14.744Z,10.20
2018-05-16T08:55:42.196Z,10.03
2018-05-16T08:58:09.791Z,6.87
2018-05-16T09:00:37.329Z,8.23
2018-05-16T09:03:04.937Z,7.83
2018-05-16T09:05:33.603Z,10.20
2018-05-16T09:08:01.737Z,8.77
2018-05-16T09:10:29.285Z,7.33
2018-05-16T09:12:57.521Z,9.00
2018-05-16T09:15:25.023Z,8.97
2018-05-16T09:17:52.502Z,7.40
2018-05-16T09:20:20.071Z,8.13
2018-05-16T09:22:47.528Z,6.77
2018-05-16T09:25:15.200Z,5.70
2018-05-16T09:27:42.793Z,6.83
2018-05-16T09:30:10.387Z,6.80
2018-05-16T09:32:37.972Z,7.00
2018-05-16T09:35:05.546Z,9.33
2018-05-16T09:37:33.291Z,5.77
2018-05-16T09:40:02.822Z,6.20
2018-05-16T09:42:30.345Z,5.50
2018-05-16T09:44:57.863Z,6.83
2018-05-16T09:47:25.336Z,7.80
2018-05-16T09:49:53.312Z,7.13
2018-05-16T09:52:20.808Z,6.70
2018-05-16T09:54:48.692Z,6.20
2018-05-16T09:57:16.190Z,8.57
2018-05-16T09:59:44.373Z,11.27
2018-05-16T10:02:12.003Z,8.07
2018-05-16T10:04:39.514Z,13.00
2018-05-16T10:07:06.949Z,17.80
2018-05-16T10:09:34.455Z,21.57
2018-05-16T10:12:01.927Z,11.30
2018-05-16T10:14:30.687Z,9.30
2018-05-16T10:16:58.214Z,8.20
2018-05-16T10:19:26.304Z,9.20
2018-05-16T10:21:53.796Z,7.50
2018-05-16T10:24:21.388Z,11.23
2018-05-16T10:26:48.856Z,14.20
2018-05-16T10:29:16.475Z,9.00
2018-05-16T10:31:44.375Z,8.00
2018-05-16T10:34:12.210Z,8.23
2018-05-16T10:36:39.662Z,9.93
2018-05-16T10:39:07.150Z,10.17
2018-05-16T10:41:34.656Z,14.10
2018-05-16T10:44:02.078Z,14.20
2018-05-16T10:46:29.618Z,12.90
2018-05-16T10:48:57.137Z,12.30
2018-05-16T10:51:25.063Z,10.50
2018-05-16T10:53:52.510Z,10.90
2018-05-16T10:56:20.051Z,9.23
2018-05-16T10:58:47.905Z,9.70
2018-05-16T11:01:15.461Z,11.10
2018-05-16T11:03:42.930Z,9.40
2018-05-16T11:06:10.475Z,10.63
2018-05-16T11:08:38.433Z,10.47
2018-05-16T11:11:05.915Z,11.77
2018-05-16T11:13:33.396Z,12.13
2018-05-16T11:16:01.037Z,10.60
2018-05-16T11:18:28.499Z,9.37
2018-05-16T11:20:56.223Z,8.43
2018-05-16T11:23:23.698Z,8.70
2018-05-16T11:25:51.199Z,6.80
2018-05-16T11:28:18.699Z,7.83
2018-05-16T11:30:46.316Z,9.87
2018-05-16T11:33:13.822Z,8.50
2018-05-16T11:35:41.279Z,8.40
2018-05-16T11:38:08.757Z,10.80
2018-05-16T11:40:36.713Z,10.63
2018-05-16T11:43:04.595Z,9.43
2018-05-16T11:45:32.041Z,8.43
2018-05-16T11:47:59.531Z,9.97
2018-05-16T11:50:26.998Z,9.10
2018-05-16T11:52:54.842Z,8.70
2018-05-16T11:55:22.339Z,10.30
2018-05-16T11:57:50.034Z,10.20
2018-05-16T12:00:17.495Z,9.03
2018-05-16T12:02:45.023Z,9.60
2018-05-16T12:05:12.663Z,9.40
2018-05-16T12:07:40.115Z,9.70
2018-05-16T12:10:07.701Z,8.80
2018-05-16T12:12:35.247Z,9.60
2018-05-16T12:15:02.731Z,9.07
2018-05-16T12:20:05.060Z,8.73
2018-05-16T12:22:33.722Z,7.47
2018-05-16T12:25:01.200Z,7.60
2018-05-16T12:27:28.717Z,6.80
2018-05-16T12:29:56.223Z,6.60
2018-05-16T12:32:23.709Z,6.90
2018-05-16T12:34:51.526Z,6.90
2018-05-16T12:37:19.037Z,6.13
2018-05-16T12:39:46.587Z,6.47
2018-05-16T12:42:14.092Z,7.10
2018-05-16T12:44:41.694Z,6.07
2018-05-16T12:47:09.232Z,6.20
2018-05-16T12:49:36.720Z,5.70
2018-05-16T12:52:04.195Z,6.33
2018-05-16T12:54:32.332Z,6.20
2018-05-16T12:57:00.202Z,6.17
2018-05-16T12:59:27.670Z,6.03
2018-05-16T13:01:56.471Z,5.83
2018-05-16T13:04:23.943Z,7.20
2018-05-16T13:06:51.413Z,7.03
2018-05-16T13:09:19.319Z,6.70
2018-05-16T13:11:46.791Z,7.13
2018-05-16T13:14:14.370Z,6.43
2018-05-16T13:16:41.849Z,5.67
2018-05-16T13:19:09.334Z,4.77
2018-05-16T13:21:36.871Z,5.23
2018-05-16T13:24:04.274Z,4.23
2018-05-16T13:26:31.763Z,5.57
2018-05-16T13:28:59.574Z,4.90
2018-05-16T13:31:27.332Z,6.33
2018-05-16T13:33:54.843Z,6.17
2018-05-16T13:36:22.530Z,6.43
2018-05-16T13:38:49.937Z,6.67
2018-05-16T13:41:17.515Z,6.10
2018-05-16T13:43:48.456Z,8.60
2018-05-16T13:46:16.021Z,6.20
2018-05-16T13:48:43.599Z,5.87
2018-05-16T13:51:11.079Z,5.33
2018-05-16T13:53:39.257Z,6.60
2018-05-16T13:56:07.552Z,6.20
2018-05-16T13:58:34.991Z,5.97
2018-05-16T14:01:03.362Z,6.40
2018-05-16T14:03:31.170Z,6.50
2018-05-16T14:05:58.662Z,6.07
2018-05-16T14:08:26.172Z,7.07
2018-05-16T14:10:54.021Z,7.03
2018-05-16T14:13:21.503Z,7.70
2018-05-16T14:15:50.010Z,6.57
2018-05-16T14:18:17.621Z,7.60
2018-05-16T14:20:45.410Z,6.37
2018-05-16T14:23:13.145Z,6.83
2018-05-16T14:25:41.806Z,7.77
2018-05-16T14:28:09.704Z,7.37
2018-05-16T14:30:38.025Z,8.00
2018-05-16T14:33:05.960Z,8.20
2018-05-16T14:35:33.400Z,7.20
2018-05-16T14:38:01.716Z,6.97
2018-05-16T14:40:29.302Z,6.43
2018-05-16T14:42:59.862Z,8.20
2018-05-16T14:45:28.193Z,6.50
2018-05-16T14:47:55.621Z,6.23
2018-05-16T14:50:24.095Z,6.23
2018-05-16T14:52:52.003Z,7.17
2018-05-16T14:55:20.152Z,7.10
2018-05-16T14:57:49.382Z,6.00
2018-05-16T15:00:16.944Z,6.10
2018-05-16T15:02:46.701Z,5.07
2018-05-16T15:05:14.978Z,6.77
2018-05-16T15:07:42.411Z,6.00
2018-05-16T15:10:09.913Z,5.90
2018-05-16T15:12:37.355Z,9.30
2018-05-16T15:15:04.906Z,6.90
2018-05-16T15:17:32.348Z,6.70
2018-05-16T15:19:59.825Z,5.83
2018-05-16T15:22:27.272Z,6.47
2018-05-16T15:24:54.765Z,6.30
2018-05-16T15:27:22.239Z,4.97
2018-05-16T15:29:49.727Z,2.93
2018-05-16T15:32:17.263Z,4.30
2018-05-16T15:34:44.712Z,9.53
2018-05-16T15:37:12.664Z,5.30
2018-05-16T15:39:40.137Z,10.27
2018-05-16T15:42:07.732Z,7.53
2018-05-16T15:44:35.230Z,6.13
2018-05-16T15:47:02.799Z,7.63
2018-05-16T15:49:30.279Z,5.37
2018-05-16T15:51:57.763Z,6.33
2018-05-16T15:54:26.670Z,6.50
2018-05-16T15:56:54.371Z,8.30
2018-05-16T15:59:22.122Z,8.33
2018-05-16T16:01:49.670Z,5.80
2018-05-16T16:04:20.923Z,5.90
2018-05-16T16:06:48.597Z,6.13
2018-05-16T16:09:16.077Z,4.70
2018-05-16T16:11:43.543Z,5.53
2018-05-16T16:14:12.168Z,6.33
2018-05-16T16:16:39.791Z,5.63
2018-05-16T16:19:07.316Z,5.80
2018-05-16T16:21:34.776Z,4.90
2018-05-16T16:24:02.267Z,8.73
2018-05-16T16:26:30.343Z,5.70
2018-05-16T16:28:58.252Z,5.10
2018-05-16T16:31:25.841Z,5.53
2018-05-16T16:33:53.355Z,7.20
2018-05-16T16:36:21.188Z,6.00
2018-05-16T16:38:48.743Z,6.40
2018-05-16T16:41:16.218Z,5.83
2018-05-16T16:43:45.966Z,7.90
2018-05-16T16:46:13.865Z,7.60
2018-05-16T16:48:41.378Z,9.10
2018-05-16T16:51:09.757Z,10.03
2018-05-16T16:53:37.767Z,8.37
2018-05-16T16:56:05.474Z,7.50
2018-05-16T16:58:34.825Z,8.23
2018-05-16T17:01:02.530Z,8.57
2018-05-16T17:03:30.030Z,7.30
2018-05-16T17:05:57.633Z,10.10
2018-05-16T17:08:25.115Z,6.90
2018-05-16T17:10:52.741Z,8.27
2018-05-16T17:13:21.416Z,11.40
2018-05-16T17:15:48.898Z,5.90
2018-05-16T17:18:16.430Z,8.07
2018-05-16T17:20:44.407Z,9.27
2018-05-16T17:23:12.672Z,8.20
2018-05-16T17:25:40.917Z,8.43
2018-05-16T17:28:08.422Z,7.90
2018-05-16T17:30:35.939Z,8.83
2018-05-16T17:33:03.414Z,8.10
2018-05-16T17:35:30.882Z,7.60
2018-05-16T17:37:59.584Z,6.77
2018-05-16T17:40:27.090Z,7.43
2018-05-16T17:42:56.520Z,7.17
2018-05-16T17:45:25.120Z,6.90
2018-05-16T17:47:54.706Z,6.70
2018-05-16T17:50:22.246Z,6.60
2018-05-16T17:52:51.040Z,6.00
2018-05-16T17:55:18.527Z,7.00
2018-05-16T17:57:46.082Z,7.67
2018-05-16T18:00:13.571Z,6.60
2018-05-16T18:02:41.044Z,7.53
2018-05-16T18:05:09.636Z,9.80
2018-05-16T18:07:37.083Z,7.60
2018-05-16T18:10:05.300Z,8.27
2018-05-16T18:12:32.838Z,7.53
2018-05-16T18:15:21.919Z,16.57
2018-05-16T18:17:52.194Z,7.83
2018-05-16T18:20:19.833Z,6.90
2018-05-16T18:22:48.150Z,7.10
2018-05-16T18:25:16.296Z,7.90
2018-05-16T18:27:44.708Z,8.43
2018-05-16T18:30:13.114Z,8.30
2018-05-16T18:32:40.746Z,8.77
2018-05-16T18:35:09.484Z,9.33
2018-05-16T18:37:38.072Z,7.33
2018-05-16T18:40:05.528Z,9.33
2018-05-16T18:42:33.164Z,9.20
2018-05-16T18:45:04.345Z,9.30
2018-05-16T18:47:32.707Z,7.90
2018-05-16T18:50:00.228Z,7.43
2018-05-16T18:52:27.741Z,6.70
2018-05-16T18:54:55.197Z,7.20
2018-05-16T18:57:23.552Z,9.03
2018-05-16T18:59:51.870Z,11.93
2018-05-16T19:02:20.190Z,10.10
2018-05-16T19:04:47.683Z,10.40
2018-05-16T19:07:15.161Z,8.50
2018-05-16T19:09:42.611Z,7.83
2018-05-16T19:12:10.238Z,8.47
2018-05-16T19:14:39.043Z,8.20
2018-05-16T19:17:06.489Z,8.90
2018-05-16T19:19:34.119Z,7.60
2018-05-16T19:22:01.831Z,6.87
2018-05-16T19:24:30.181Z,9.47
2018-05-16T19:26:57.801Z,7.73
2018-05-16T19:29:25.264Z,8.77
2018-05-16T19:31:52.731Z,9.93
2018-05-16T19:34:20.242Z,10.47
2018-05-16T19:36:47.736Z,9.30
2018-05-16T19:39:17.809Z,9.40
2018-05-16T19:41:45.345Z,8.83
2018-05-16T19:44:12.891Z,9.20
2018-05-16T19:46:40.401Z,7.67
2018-05-16T19:49:07.916Z,7.83
2018-05-16T19:51:35.484Z,10.30
2018-05-16T19:54:03.900Z,8.00
2018-05-16T19:56:31.382Z,9.80
2018-05-16T19:58:58.952Z,20.77
2018-05-16T20:01:26.428Z,9.17
2018-05-16T20:03:53.926Z,8.73
2018-05-16T20:06:21.404Z,7.87
2018-05-16T20:08:48.952Z,8.40
2018-05-16T20:11:16.519Z,8.60
2018-05-16T20:13:43.996Z,9.67
2018-05-16T20:16:12.562Z,8.90
2018-05-16T20:18:40.052Z,9.27
2018-05-16T20:21:07.570Z,11.47
2018-05-16T20:23:35.075Z,8.80
2018-05-16T20:26:02.985Z,8.23
2018-05-16T20:28:30.712Z,17.10
2018-05-16T20:30:58.308Z,7.83
2018-05-16T20:33:25.821Z,9.80
2018-05-16T20:35:53.493Z,23.53
2018-05-16T20:38:20.974Z,9.33
2018-05-16T20:43:22.542Z,10.33
2018-05-16T20:45:50.219Z,7.30
2018-05-16T20:48:17.686Z,7.40
2018-05-16T20:50:45.256Z,10.63
2018-05-16T20:53:12.666Z,8.57
2018-05-16T20:55:40.137Z,8.17
2018-05-16T20:58:07.625Z,6.70
2018-05-16T21:00:35.137Z,8.80
2018-05-16T21:03:02.629Z,6.50
2018-05-16T21:05:30.149Z,5.80
2018-05-16T21:07:57.602Z,18.50
2018-05-16T21:10:25.055Z,7.30
2018-05-16T21:12:52.544Z,6.90
2018-05-16T21:15:20.018Z,9.70
2018-05-16T21:17:47.575Z,8.70
2018-05-16T21:20:15.061Z,11.70
2018-05-16T21:22:42.533Z,9.03
2018-05-16T21:25:09.979Z,9.93
2018-05-16T21:27:37.450Z,7.30
2018-05-16T21:30:05.005Z,8.97
2018-05-16T21:32:32.487Z,11.67
2018-05-16T21:34:59.940Z,12.27
2018-05-16T21:37:27.381Z,8.63
2018-05-16T21:39:55.087Z,9.03
2018-05-16T21:42:22.600Z,8.27
2018-05-16T21:44:50.070Z,12.70
2018-05-16T21:47:18.161Z,10.23
2018-05-16T21:49:45.810Z,9.37
2018-05-16T21:52:15.005Z,9.90
2018-05-16T21:54:42.493Z,10.20
2018-05-16T21:57:09.992Z,10.10
2018-05-16T21:59:38.730Z,11.37
2018-05-16T22:02:07.659Z,12.63
2018-05-16T22:04:36.227Z,14.60
2018-05-16T22:07:04.481Z,14.47
2018-05-16T22:09:31.959Z,12.13
2018-05-16T22:11:59.483Z,13.17
2018-05-16T22:14:27.287Z,9.47
2018-05-16T22:16:54.728Z,9.73
2018-05-16T22:19:22.259Z,10.30
2018-05-16T22:21:49.753Z,11.40
2018-05-16T22:24:17.209Z,12.00
2018-05-16T22:26:44.726Z,9.50
2018-05-16T22:29:12.549Z,14.90
2018-05-16T22:31:46.889Z,9.77
2018-05-16T22:34:19.967Z,11.47
2018-05-16T22:36:54.585Z,8.60
2018-05-16T22:39:28.438Z,8.23
2018-05-16T22:42:02.148Z,12.53
2018-05-16T22:44:35.328Z,9.97
2018-05-16T22:47:02.814Z,9.43
2018-05-16T22:49:30.283Z,9.20
2018-05-16T22:51:57.730Z,10.10
2018-05-16T22:54:25.455Z,11.43
2018-05-16T22:56:52.910Z,8.33
2018-05-16T22:59:20.513Z,8.53
2018-05-16T23:01:48.405Z,10.80
2018-05-16T23:04:17.173Z,9.30
2018-05-16T23:06:44.635Z,9.30
2018-05-16T23:09:12.162Z,12.10
2018-05-16T23:11:40.132Z,10.30
2018-05-16T23:14:07.783Z,10.10
2018-05-16T23:16:36.212Z,10.43
2018-05-16T23:19:03.822Z,10.57
2018-05-16T23:21:31.279Z,11.57
2018-05-16T23:26:33.842Z,9.00
2018-05-16T23:29:01.306Z,9.90
2018-05-16T23:31:28.799Z,9.83
2018-05-16T23:33:56.329Z,13.33
2018-05-16T23:36:24.642Z,11.90
2018-05-16T23:38:52.153Z,11.60
2018-05-16T23:41:19.636Z,12.40
2018-05-16T23:43:47.189Z,12.33
2018-05-16T23:46:15.375Z,14.80
2018-05-16T23:48:42.838Z,14.30
2018-05-16T23:51:10.350Z,13.47
2018-05-16T23:53:37.855Z,12.53
2018-05-16T23:56:05.344Z,14.60
2018-05-16T23:58:32.774Z,12.63
